sensor_id;sensor_type;location;lat;lon;timestamp;temperature;humidity
46676;DHT22;32412;51.478;5.694;2023-01-06T00:01:25;10.40;99.90
46676;DHT22;32412;51.478;5.694;2023-01-06T00:03:54;10.50;99.90
46676;DHT22;32412;51.478;5.694;2023-01-06T00:06:22;10.40;99.90
46676;DHT22;32412;51.478;5.694;2023-01-06T00:08:52;10.40;99.90
46676;DHT22;32412;51.478;5.694;2023-01-06T00:11:18;10.40;99.90
46676;DHT22;32412;51.478;5.694;2023-01-06T00:13:44;10.40;99.90
46676;DHT22;32412;51.478;5.694;2023-01-06T00:16:13;10.40;99.90
46676;DHT22;32412;51.478;5.694;2023-01-06T00:18:39;10.40;99.90
46676;DHT22;32412;51.478;5.694;2023-01-06T00:21:05;10.50;99.90
46676;DHT22;32412;51.478;5.694;2023-01-06T00:23:32;10.50;99.90
46676;DHT22;32412;51.478;5.694;2023-01-06T00:25:58;10.50;99.90
46676;DHT22;32412;51.478;5.694;2023-01-06T00:28:24;10.50;99.90
46676;DHT22;32412;51.478;5.694;2023-01-06T00:30:50;10.50;99.90
46676;DHT22;32412;51.478;5.694;2023-01-06T00:33:15;10.50;99.90
46676;DHT22;32412;51.478;5.694;2023-01-06T00:35:41;10.50;99.90
46676;DHT22;32412;51.478;5.694;2023-01-06T00:38:07;10.50;99.90
46676;DHT22;32412;51.478;5.694;2023-01-06T00:40:34;10.50;99.90
46676;DHT22;32412;51.478;5.694;2023-01-06T00:43:00;10.50;99.90
46676;DHT22;32412;51.478;5.694;2023-01-06T00:45:25;10.50;99.90
46676;DHT22;32412;51.478;5.694;2023-01-06T00:47:51;10.60;99.90
46676;DHT22;32412;51.478;5.694;2023-01-06T00:50:17;10.60;99.90
46676;DHT22;32412;51.478;5.694;2023-01-06T00:52:42;10.60;99.90
46676;DHT22;32412;51.478;5.694;2023-01-06T00:55:08;10.60;99.90
46676;DHT22;32412;51.478;5.694;2023-01-06T00:57:34;10.60;99.90
46676;DHT22;32412;51.478;5.694;2023-01-06T01:00:00;10.60;99.90
46676;DHT22;32412;51.478;5.694;2023-01-06T01:02:25;10.60;99.90
46676;DHT22;32412;51.478;5.694;2023-01-06T01:04:51;10.50;99.90
46676;DHT22;32412;51.478;5.694;2023-01-06T01:07:17;10.50;99.90
46676;DHT22;32412;51.478;5.694;2023-01-06T01:09:42;10.50;99.90
46676;DHT22;32412;51.478;5.694;2023-01-06T01:12:10;10.50;99.90
46676;DHT22;32412;51.478;5.694;2023-01-06T01:14:48;10.50;99.90
46676;DHT22;32412;51.478;5.694;2023-01-06T01:17:16;10.50;99.90
46676;DHT22;32412;51.478;5.694;2023-01-06T01:19:42;10.50;99.90
46676;DHT22;32412;51.478;5.694;2023-01-06T01:22:08;10.50;99.90
46676;DHT22;32412;51.478;5.694;2023-01-06T01:24:34;10.50;99.90
46676;DHT22;32412;51.478;5.694;2023-01-06T01:26:59;10.50;99.90
46676;DHT22;32412;51.478;5.694;2023-01-06T01:29:25;10.50;99.90
46676;DHT22;32412;51.478;5.694;2023-01-06T01:31:51;10.50;99.90
46676;DHT22;32412;51.478;5.694;2023-01-06T01:34:17;10.50;99.90
46676;DHT22;32412;51.478;5.694;2023-01-06T01:36:45;10.50;99.90
46676;DHT22;32412;51.478;5.694;2023-01-06T01:39:12;10.50;99.90
46676;DHT22;32412;51.478;5.694;2023-01-06T01:41:39;10.50;99.90
46676;DHT22;32412;51.478;5.694;2023-01-06T01:47:09;10.50;99.90
46676;DHT22;32412;51.478;5.694;2023-01-06T01:49:38;10.50;99.90
46676;DHT22;32412;51.478;5.694;2023-01-06T01:52:05;10.50;99.90
46676;DHT22;32412;51.478;5.694;2023-01-06T01:54:33;10.50;99.90
46676;DHT22;32412;51.478;5.694;2023-01-06T01:57:06;10.50;99.90
46676;DHT22;32412;51.478;5.694;2023-01-06T01:59:34;10.50;99.90
46676;DHT22;32412;51.478;5.694;2023-01-06T02:02:01;10.50;99.90
46676;DHT22;32412;51.478;5.694;2023-01-06T02:04:27;10.50;99.90
46676;DHT22;32412;51.478;5.694;2023-01-06T02:06:54;10.60;99.90
46676;DHT22;32412;51.478;5.694;2023-01-06T02:09:37;10.50;99.90
46676;DHT22;32412;51.478;5.694;2023-01-06T02:12:06;10.60;99.90
46676;DHT22;32412;51.478;5.694;2023-01-06T02:14:31;10.60;99.90
46676;DHT22;32412;51.478;5.694;2023-01-06T02:23:07;10.50;99.90
46676;DHT22;32412;51.478;5.694;2023-01-06T02:31:27;10.60;99.90
46676;DHT22;32412;51.478;5.694;2023-01-06T02:34:12;10.50;99.90
46676;DHT22;32412;51.478;5.694;2023-01-06T02:39:48;10.50;99.90
46676;DHT22;32412;51.478;5.694;2023-01-06T02:42:38;10.50;99.90
46676;DHT22;32412;51.478;5.694;2023-01-06T02:45:16;10.50;99.90
46676;DHT22;32412;51.478;5.694;2023-01-06T02:48:09;10.60;99.90
46676;DHT22;32412;51.478;5.694;2023-01-06T02:53:38;10.60;99.90
46676;DHT22;32412;51.478;5.694;2023-01-06T02:56:05;10.60;99.90
46676;DHT22;32412;51.478;5.694;2023-01-06T02:58:46;10.60;99.90
46676;DHT22;32412;51.478;5.694;2023-01-06T03:01:21;10.60;99.90
46676;DHT22;32412;51.478;5.694;2023-01-06T03:03:50;10.60;99.90
46676;DHT22;32412;51.478;5.694;2023-01-06T03:06:21;10.60;99.90
46676;DHT22;32412;51.478;5.694;2023-01-06T03:08:50;10.60;99.90
46676;DHT22;32412;51.478;5.694;2023-01-06T03:11:17;10.70;99.90
46676;DHT22;32412;51.478;5.694;2023-01-06T03:16:09;10.60;99.90
46676;DHT22;32412;51.478;5.694;2023-01-06T03:18:36;10.60;99.90
46676;DHT22;32412;51.478;5.694;2023-01-06T03:21:10;10.60;99.90
46676;DHT22;32412;51.478;5.694;2023-01-06T03:23:39;10.60;99.90
46676;DHT22;32412;51.478;5.694;2023-01-06T03:26:06;10.60;99.90
46676;DHT22;32412;51.478;5.694;2023-01-06T03:28:32;10.60;99.90
46676;DHT22;32412;51.478;5.694;2023-01-06T03:31:06;10.70;99.90
46676;DHT22;32412;51.478;5.694;2023-01-06T03:33:44;10.70;99.90
46676;DHT22;32412;51.478;5.694;2023-01-06T03:41:38;10.80;99.90
46676;DHT22;32412;51.478;5.694;2023-01-06T03:44:45;10.70;99.90
46676;DHT22;32412;51.478;5.694;2023-01-06T03:47:59;10.70;99.90
46676;DHT22;32412;51.478;5.694;2023-01-06T03:50:24;10.70;99.90
46676;DHT22;32412;51.478;5.694;2023-01-06T03:53:04;10.70;99.90
46676;DHT22;32412;51.478;5.694;2023-01-06T03:55:35;10.70;99.90
46676;DHT22;32412;51.478;5.694;2023-01-06T03:58:04;10.80;99.90
46676;DHT22;32412;51.478;5.694;2023-01-06T04:00:32;10.80;99.90
46676;DHT22;32412;51.478;5.694;2023-01-06T04:03:00;10.80;99.90
46676;DHT22;32412;51.478;5.694;2023-01-06T04:05:27;10.80;99.90
46676;DHT22;32412;51.478;5.694;2023-01-06T04:07:53;10.70;99.90
46676;DHT22;32412;51.478;5.694;2023-01-06T04:10:20;10.70;99.90
46676;DHT22;32412;51.478;5.694;2023-01-06T04:12:46;10.80;99.90
46676;DHT22;32412;51.478;5.694;2023-01-06T04:15:14;10.80;99.90
46676;DHT22;32412;51.478;5.694;2023-01-06T04:17:41;10.80;99.90
46676;DHT22;32412;51.478;5.694;2023-01-06T04:20:10;10.80;99.90
46676;DHT22;32412;51.478;5.694;2023-01-06T04:22:36;10.80;99.90
46676;DHT22;32412;51.478;5.694;2023-01-06T04:25:03;10.80;99.90
46676;DHT22;32412;51.478;5.694;2023-01-06T04:27:28;10.80;99.90
46676;DHT22;32412;51.478;5.694;2023-01-06T04:29:54;10.80;99.90
46676;DHT22;32412;51.478;5.694;2023-01-06T04:32:20;10.70;99.90
46676;DHT22;32412;51.478;5.694;2023-01-06T04:34:45;10.70;99.90
46676;DHT22;32412;51.478;5.694;2023-01-06T04:37:11;10.70;99.90
46676;DHT22;32412;51.478;5.694;2023-01-06T04:39:37;10.70;99.90
46676;DHT22;32412;51.478;5.694;2023-01-06T04:42:03;10.70;99.90
46676;DHT22;32412;51.478;5.694;2023-01-06T04:44:28;10.70;99.90
46676;DHT22;32412;51.478;5.694;2023-01-06T04:46:54;10.70;99.90
46676;DHT22;32412;51.478;5.694;2023-01-06T04:49:20;10.70;99.90
46676;DHT22;32412;51.478;5.694;2023-01-06T04:51:45;10.70;99.90
46676;DHT22;32412;51.478;5.694;2023-01-06T04:54:11;10.70;99.90
46676;DHT22;32412;51.478;5.694;2023-01-06T04:56:37;10.70;99.90
46676;DHT22;32412;51.478;5.694;2023-01-06T04:59:02;10.80;99.90
46676;DHT22;32412;51.478;5.694;2023-01-06T05:01:28;10.70;99.90
46676;DHT22;32412;51.478;5.694;2023-01-06T05:03:54;10.70;99.90
46676;DHT22;32412;51.478;5.694;2023-01-06T05:06:20;10.70;99.90
46676;DHT22;32412;51.478;5.694;2023-01-06T05:08:46;10.70;99.90
46676;DHT22;32412;51.478;5.694;2023-01-06T05:11:17;10.70;99.90
46676;DHT22;32412;51.478;5.694;2023-01-06T05:13:43;10.70;99.90
46676;DHT22;32412;51.478;5.694;2023-01-06T05:16:12;10.70;99.90
46676;DHT22;32412;51.478;5.694;2023-01-06T05:18:39;10.70;99.90
46676;DHT22;32412;51.478;5.694;2023-01-06T05:21:04;10.60;99.90
46676;DHT22;32412;51.478;5.694;2023-01-06T05:23:30;10.60;99.90
46676;DHT22;32412;51.478;5.694;2023-01-06T05:25:56;10.60;99.90
46676;DHT22;32412;51.478;5.694;2023-01-06T05:28:22;10.60;99.90
46676;DHT22;32412;51.478;5.694;2023-01-06T05:30:47;10.60;99.90
46676;DHT22;32412;51.478;5.694;2023-01-06T05:33:13;10.60;99.90
46676;DHT22;32412;51.478;5.694;2023-01-06T05:35:39;10.60;99.90
46676;DHT22;32412;51.478;5.694;2023-01-06T05:38:05;10.60;99.90
46676;DHT22;32412;51.478;5.694;2023-01-06T05:40:31;10.60;99.90
46676;DHT22;32412;51.478;5.694;2023-01-06T05:42:57;10.60;99.90
46676;DHT22;32412;51.478;5.694;2023-01-06T05:45:24;10.60;99.90
46676;DHT22;32412;51.478;5.694;2023-01-06T05:47:50;10.50;99.90
46676;DHT22;32412;51.478;5.694;2023-01-06T05:50:16;10.60;99.90
46676;DHT22;32412;51.478;5.694;2023-01-06T05:52:42;10.60;99.90
46676;DHT22;32412;51.478;5.694;2023-01-06T05:55:09;10.60;99.90
46676;DHT22;32412;51.478;5.694;2023-01-06T05:57:35;10.60;99.90
46676;DHT22;32412;51.478;5.694;2023-01-06T06:00:03;10.60;99.90
46676;DHT22;32412;51.478;5.694;2023-01-06T06:02:30;10.60;99.90
46676;DHT22;32412;51.478;5.694;2023-01-06T06:04:55;10.60;99.90
46676;DHT22;32412;51.478;5.694;2023-01-06T06:07:21;10.60;99.90
46676;DHT22;32412;51.478;5.694;2023-01-06T06:09:47;10.70;99.90
46676;DHT22;32412;51.478;5.694;2023-01-06T06:12:12;10.70;99.90
46676;DHT22;32412;51.478;5.694;2023-01-06T06:14:38;10.70;99.90
46676;DHT22;32412;51.478;5.694;2023-01-06T06:17:04;10.60;99.90
46676;DHT22;32412;51.478;5.694;2023-01-06T06:19:29;10.70;99.90
46676;DHT22;32412;51.478;5.694;2023-01-06T06:21:55;10.70;99.90
46676;DHT22;32412;51.478;5.694;2023-01-06T06:24:21;10.70;99.90
46676;DHT22;32412;51.478;5.694;2023-01-06T06:26:47;10.60;99.90
46676;DHT22;32412;51.478;5.694;2023-01-06T06:29:12;10.60;99.90
46676;DHT22;32412;51.478;5.694;2023-01-06T06:31:38;10.70;99.90
46676;DHT22;32412;51.478;5.694;2023-01-06T06:34:04;10.70;99.90
46676;DHT22;32412;51.478;5.694;2023-01-06T06:36:31;10.70;99.90
46676;DHT22;32412;51.478;5.694;2023-01-06T06:38:57;10.80;99.90
46676;DHT22;32412;51.478;5.694;2023-01-06T06:41:24;10.80;99.90
46676;DHT22;32412;51.478;5.694;2023-01-06T06:43:50;10.80;99.90
46676;DHT22;32412;51.478;5.694;2023-01-06T06:46:17;10.80;99.90
46676;DHT22;32412;51.478;5.694;2023-01-06T06:48:43;10.80;99.90
46676;DHT22;32412;51.478;5.694;2023-01-06T06:51:11;10.80;99.90
46676;DHT22;32412;51.478;5.694;2023-01-06T06:53:38;10.80;99.90
46676;DHT22;32412;51.478;5.694;2023-01-06T06:56:06;10.80;99.90
46676;DHT22;32412;51.478;5.694;2023-01-06T06:58:32;10.80;99.90
46676;DHT22;32412;51.478;5.694;2023-01-06T07:00:58;10.80;99.90
46676;DHT22;32412;51.478;5.694;2023-01-06T07:03:27;10.80;99.90
46676;DHT22;32412;51.478;5.694;2023-01-06T07:05:52;10.70;99.90
46676;DHT22;32412;51.478;5.694;2023-01-06T07:08:18;10.70;99.90
46676;DHT22;32412;51.478;5.694;2023-01-06T07:10:44;10.70;99.90
46676;DHT22;32412;51.478;5.694;2023-01-06T07:13:11;10.70;99.90
46676;DHT22;32412;51.478;5.694;2023-01-06T07:15:36;10.60;99.90
46676;DHT22;32412;51.478;5.694;2023-01-06T07:18:06;10.60;99.90
46676;DHT22;32412;51.478;5.694;2023-01-06T07:20:33;10.70;99.90
46676;DHT22;32412;51.478;5.694;2023-01-06T07:22:59;10.60;99.90
46676;DHT22;32412;51.478;5.694;2023-01-06T07:25:25;10.60;99.90
46676;DHT22;32412;51.478;5.694;2023-01-06T07:27:58;10.60;99.90
46676;DHT22;32412;51.478;5.694;2023-01-06T07:30:25;10.60;99.90
46676;DHT22;32412;51.478;5.694;2023-01-06T07:32:52;10.50;99.90
46676;DHT22;32412;51.478;5.694;2023-01-06T07:35:18;10.50;99.90
46676;DHT22;32412;51.478;5.694;2023-01-06T07:37:44;10.50;99.90
46676;DHT22;32412;51.478;5.694;2023-01-06T07:40:10;10.60;99.90
46676;DHT22;32412;51.478;5.694;2023-01-06T07:42:36;10.60;99.90
46676;DHT22;32412;51.478;5.694;2023-01-06T07:45:03;10.60;99.90
46676;DHT22;32412;51.478;5.694;2023-01-06T07:47:29;10.60;99.90
46676;DHT22;32412;51.478;5.694;2023-01-06T07:49:54;10.50;99.90
46676;DHT22;32412;51.478;5.694;2023-01-06T07:52:20;10.50;99.90
46676;DHT22;32412;51.478;5.694;2023-01-06T07:54:46;10.40;99.90
46676;DHT22;32412;51.478;5.694;2023-01-06T07:57:12;10.40;99.90
46676;DHT22;32412;51.478;5.694;2023-01-06T07:59:37;10.30;99.90
46676;DHT22;32412;51.478;5.694;2023-01-06T08:02:03;10.30;99.90
46676;DHT22;32412;51.478;5.694;2023-01-06T08:04:29;10.30;99.90
46676;DHT22;32412;51.478;5.694;2023-01-06T08:06:54;10.30;99.90
46676;DHT22;32412;51.478;5.694;2023-01-06T08:09:20;10.40;99.90
46676;DHT22;32412;51.478;5.694;2023-01-06T08:11:46;10.40;99.90
46676;DHT22;32412;51.478;5.694;2023-01-06T08:14:11;10.30;99.90
46676;DHT22;32412;51.478;5.694;2023-01-06T08:16:38;10.30;99.90
46676;DHT22;32412;51.478;5.694;2023-01-06T08:19:04;10.30;99.90
46676;DHT22;32412;51.478;5.694;2023-01-06T08:21:30;10.40;99.90
46676;DHT22;32412;51.478;5.694;2023-01-06T08:23:55;10.40;99.90
46676;DHT22;32412;51.478;5.694;2023-01-06T08:26:21;10.30;99.90
46676;DHT22;32412;51.478;5.694;2023-01-06T08:28:47;10.40;99.90
46676;DHT22;32412;51.478;5.694;2023-01-06T08:31:15;10.30;99.90
46676;DHT22;32412;51.478;5.694;2023-01-06T08:33:41;10.30;99.90
46676;DHT22;32412;51.478;5.694;2023-01-06T08:36:17;10.30;99.90
46676;DHT22;32412;51.478;5.694;2023-01-06T08:38:43;10.30;99.90
46676;DHT22;32412;51.478;5.694;2023-01-06T08:41:10;10.30;99.90
46676;DHT22;32412;51.478;5.694;2023-01-06T08:43:36;10.30;99.90
46676;DHT22;32412;51.478;5.694;2023-01-06T08:46:05;10.30;99.90
46676;DHT22;32412;51.478;5.694;2023-01-06T08:48:32;10.40;99.90
46676;DHT22;32412;51.478;5.694;2023-01-06T08:51:11;10.40;99.90
46676;DHT22;32412;51.478;5.694;2023-01-06T08:53:38;10.50;99.90
46676;DHT22;32412;51.478;5.694;2023-01-06T08:56:11;10.40;99.90
46676;DHT22;32412;51.478;5.694;2023-01-06T08:58:37;10.50;99.90
46676;DHT22;32412;51.478;5.694;2023-01-06T09:01:03;10.50;99.90
46676;DHT22;32412;51.478;5.694;2023-01-06T09:03:29;10.50;99.90
46676;DHT22;32412;51.478;5.694;2023-01-06T09:05:56;10.60;99.90
46676;DHT22;32412;51.478;5.694;2023-01-06T09:08:21;10.60;99.90
46676;DHT22;32412;51.478;5.694;2023-01-06T09:10:47;10.60;99.90
46676;DHT22;32412;51.478;5.694;2023-01-06T09:13:14;10.60;99.90
46676;DHT22;32412;51.478;5.694;2023-01-06T09:15:41;10.60;99.90
46676;DHT22;32412;51.478;5.694;2023-01-06T09:18:07;10.60;99.90
46676;DHT22;32412;51.478;5.694;2023-01-06T09:20:36;10.70;99.90
46676;DHT22;32412;51.478;5.694;2023-01-06T09:23:02;10.80;99.90
46676;DHT22;32412;51.478;5.694;2023-01-06T09:25:28;10.80;99.90
46676;DHT22;32412;51.478;5.694;2023-01-06T09:27:54;10.90;99.90
46676;DHT22;32412;51.478;5.694;2023-01-06T09:30:19;10.90;99.90
46676;DHT22;32412;51.478;5.694;2023-01-06T09:32:45;10.90;99.90
46676;DHT22;32412;51.478;5.694;2023-01-06T09:35:10;10.90;99.90
46676;DHT22;32412;51.478;5.694;2023-01-06T09:37:36;10.90;99.90
46676;DHT22;32412;51.478;5.694;2023-01-06T09:40:02;11.00;99.90
46676;DHT22;32412;51.478;5.694;2023-01-06T09:42:50;11.00;99.90
46676;DHT22;32412;51.478;5.694;2023-01-06T09:46:05;11.10;99.90
46676;DHT22;32412;51.478;5.694;2023-01-06T09:48:20;11.10;99.90
46676;DHT22;32412;51.478;5.694;2023-01-06T09:50:50;11.10;99.90
46676;DHT22;32412;51.478;5.694;2023-01-06T09:53:25;11.20;99.90
46676;DHT22;32412;51.478;5.694;2023-01-06T09:55:55;11.20;99.90
46676;DHT22;32412;51.478;5.694;2023-01-06T09:58:27;11.30;99.90
46676;DHT22;32412;51.478;5.694;2023-01-06T10:00:55;11.50;99.90
46676;DHT22;32412;51.478;5.694;2023-01-06T10:03:25;12.00;99.90
46676;DHT22;32412;51.478;5.694;2023-01-06T10:14:33;11.80;99.90
46676;DHT22;32412;51.478;5.694;2023-01-06T10:17:32;11.60;99.90
46676;DHT22;32412;51.478;5.694;2023-01-06T10:27:57;11.50;99.90
46676;DHT22;32412;51.478;5.694;2023-01-06T10:30:46;11.90;99.90
46676;DHT22;32412;51.478;5.694;2023-01-06T10:33:22;12.60;99.90
46676;DHT22;32412;51.478;5.694;2023-01-06T10:35:48;12.30;99.90
46676;DHT22;32412;51.478;5.694;2023-01-06T10:38:15;12.10;99.90
46676;DHT22;32412;51.478;5.694;2023-01-06T10:40:43;12.00;99.90
46676;DHT22;32412;51.478;5.694;2023-01-06T10:43:11;11.80;99.90
46676;DHT22;32412;51.478;5.694;2023-01-06T10:45:44;11.70;99.90
46676;DHT22;32412;51.478;5.694;2023-01-06T10:50:37;14.00;99.90
46676;DHT22;32412;51.478;5.694;2023-01-06T10:53:03;14.90;99.90
46676;DHT22;32412;51.478;5.694;2023-01-06T10:55:58;14.90;99.90
46676;DHT22;32412;51.478;5.694;2023-01-06T11:01:10;14.20;99.90
46676;DHT22;32412;51.478;5.694;2023-01-06T11:03:36;13.50;99.90
46676;DHT22;32412;51.478;5.694;2023-01-06T11:08:47;12.80;99.90
46676;DHT22;32412;51.478;5.694;2023-01-06T11:11:15;12.70;99.90
46676;DHT22;32412;51.478;5.694;2023-01-06T11:13:47;12.80;99.90
46676;DHT22;32412;51.478;5.694;2023-01-06T11:16:34;13.00;99.90
46676;DHT22;32412;51.478;5.694;2023-01-06T11:19:03;13.20;99.90
46676;DHT22;32412;51.478;5.694;2023-01-06T11:21:44;13.50;99.90
46676;DHT22;32412;51.478;5.694;2023-01-06T11:24:21;13.60;99.90
46676;DHT22;32412;51.478;5.694;2023-01-06T11:26:51;13.80;99.90
46676;DHT22;32412;51.478;5.694;2023-01-06T11:29:35;13.70;99.90
46676;DHT22;32412;51.478;5.694;2023-01-06T11:32:33;13.70;99.90
46676;DHT22;32412;51.478;5.694;2023-01-06T11:35:00;13.80;99.90
46676;DHT22;32412;51.478;5.694;2023-01-06T11:37:33;13.80;99.90
46676;DHT22;32412;51.478;5.694;2023-01-06T11:40:03;14.00;99.90
46676;DHT22;32412;51.478;5.694;2023-01-06T11:42:40;13.90;99.90
46676;DHT22;32412;51.478;5.694;2023-01-06T11:45:07;13.90;99.90
46676;DHT22;32412;51.478;5.694;2023-01-06T11:47:33;13.50;99.90
46676;DHT22;32412;51.478;5.694;2023-01-06T11:50:00;13.20;99.90
46676;DHT22;32412;51.478;5.694;2023-01-06T11:52:32;13.20;99.90
46676;DHT22;32412;51.478;5.694;2023-01-06T11:57:55;14.10;99.90
46676;DHT22;32412;51.478;5.694;2023-01-06T12:06:29;13.40;99.90
46676;DHT22;32412;51.478;5.694;2023-01-06T12:09:04;13.80;99.90
46676;DHT22;32412;51.478;5.694;2023-01-06T12:17:03;16.40;99.90
46676;DHT22;32412;51.478;5.694;2023-01-06T12:19:54;16.90;99.90
46676;DHT22;32412;51.478;5.694;2023-01-06T12:25:18;17.10;99.90
46676;DHT22;32412;51.478;5.694;2023-01-06T12:27:51;17.20;99.90
46676;DHT22;32412;51.478;5.694;2023-01-06T12:30:42;17.30;99.90
46676;DHT22;32412;51.478;5.694;2023-01-06T12:33:44;16.70;99.90
46676;DHT22;32412;51.478;5.694;2023-01-06T12:36:42;15.90;99.90
46676;DHT22;32412;51.478;5.694;2023-01-06T12:39:12;15.30;99.90
46676;DHT22;32412;51.478;5.694;2023-01-06T12:44:48;14.80;99.90
46676;DHT22;32412;51.478;5.694;2023-01-06T12:50:15;15.60;99.90
46676;DHT22;32412;51.478;5.694;2023-01-06T12:55:15;15.30;99.90
46676;DHT22;32412;51.478;5.694;2023-01-06T13:01:06;14.70;99.90
46676;DHT22;32412;51.478;5.694;2023-01-06T13:04:04;14.40;99.90
46676;DHT22;32412;51.478;5.694;2023-01-06T13:09:53;13.80;99.90
46676;DHT22;32412;51.478;5.694;2023-01-06T13:12:49;13.60;99.90
46676;DHT22;32412;51.478;5.694;2023-01-06T13:15:24;13.40;99.90
46676;DHT22;32412;51.478;5.694;2023-01-06T13:32:27;12.50;99.90
46676;DHT22;32412;51.478;5.694;2023-01-06T13:35:05;12.50;99.90
46676;DHT22;32412;51.478;5.694;2023-01-06T13:40:26;12.40;99.90
46676;DHT22;32412;51.478;5.694;2023-01-06T13:45:46;12.50;99.90
46676;DHT22;32412;51.478;5.694;2023-01-06T13:48:23;12.50;99.90
46676;DHT22;32412;51.478;5.694;2023-01-06T13:50:50;12.70;99.90
46676;DHT22;32412;51.478;5.694;2023-01-06T13:53:18;12.80;99.90
46676;DHT22;32412;51.478;5.694;2023-01-06T13:55:45;12.70;99.90
46676;DHT22;32412;51.478;5.694;2023-01-06T14:01:51;13.10;99.90
46676;DHT22;32412;51.478;5.694;2023-01-06T14:07:07;14.70;99.90
46676;DHT22;32412;51.478;5.694;2023-01-06T14:09:48;15.00;99.90
46676;DHT22;32412;51.478;5.694;2023-01-06T14:12:21;14.40;99.90
46676;DHT22;32412;51.478;5.694;2023-01-06T14:14:59;14.00;99.90
46676;DHT22;32412;51.478;5.694;2023-01-06T14:17:45;13.70;99.90
46676;DHT22;32412;51.478;5.694;2023-01-06T14:20:33;13.50;99.90
46676;DHT22;32412;51.478;5.694;2023-01-06T14:25:40;13.30;99.90
46676;DHT22;32412;51.478;5.694;2023-01-06T14:30:44;13.20;99.90
46676;DHT22;32412;51.478;5.694;2023-01-06T14:33:34;13.30;99.90
46676;DHT22;32412;51.478;5.694;2023-01-06T14:36:05;13.50;99.90
46676;DHT22;32412;51.478;5.694;2023-01-06T14:38:47;13.50;99.90
46676;DHT22;32412;51.478;5.694;2023-01-06T14:41:38;13.20;99.90
46676;DHT22;32412;51.478;5.694;2023-01-06T14:49:43;12.50;99.90
46676;DHT22;32412;51.478;5.694;2023-01-06T14:52:26;12.40;99.90
46676;DHT22;32412;51.478;5.694;2023-01-06T14:54:57;12.30;99.90
46676;DHT22;32412;51.478;5.694;2023-01-06T15:02:48;12.00;99.90
46676;DHT22;32412;51.478;5.694;2023-01-06T15:05:34;11.90;99.90
46676;DHT22;32412;51.478;5.694;2023-01-06T15:08:05;11.80;99.90
46676;DHT22;32412;51.478;5.694;2023-01-06T15:10:33;11.80;99.90
46676;DHT22;32412;51.478;5.694;2023-01-06T15:13:00;11.70;99.90
46676;DHT22;32412;51.478;5.694;2023-01-06T15:15:29;11.80;99.90
46676;DHT22;32412;51.478;5.694;2023-01-06T15:17:56;11.70;99.90
46676;DHT22;32412;51.478;5.694;2023-01-06T15:20:39;11.70;99.90
46676;DHT22;32412;51.478;5.694;2023-01-06T15:23:06;11.70;99.90
46676;DHT22;32412;51.478;5.694;2023-01-06T15:25:35;11.60;99.90
46676;DHT22;32412;51.478;5.694;2023-01-06T15:28:02;11.60;99.90
46676;DHT22;32412;51.478;5.694;2023-01-06T15:30:28;11.40;99.90
46676;DHT22;32412;51.478;5.694;2023-01-06T15:32:59;11.30;99.90
46676;DHT22;32412;51.478;5.694;2023-01-06T15:35:28;11.30;99.90
46676;DHT22;32412;51.478;5.694;2023-01-06T15:40:38;11.20;99.90
46676;DHT22;32412;51.478;5.694;2023-01-06T15:43:06;11.20;99.90
46676;DHT22;32412;51.478;5.694;2023-01-06T15:45:33;11.20;99.90
46676;DHT22;32412;51.478;5.694;2023-01-06T15:48:14;11.20;99.90
46676;DHT22;32412;51.478;5.694;2023-01-06T15:50:41;11.10;99.90
46676;DHT22;32412;51.478;5.694;2023-01-06T15:53:19;11.10;99.90
46676;DHT22;32412;51.478;5.694;2023-01-06T15:55:51;11.00;99.90
46676;DHT22;32412;51.478;5.694;2023-01-06T15:58:33;11.00;99.90
46676;DHT22;32412;51.478;5.694;2023-01-06T16:01:13;11.00;99.90
46676;DHT22;32412;51.478;5.694;2023-01-06T16:03:45;11.10;99.90
46676;DHT22;32412;51.478;5.694;2023-01-06T16:06:13;11.10;99.90
46676;DHT22;32412;51.478;5.694;2023-01-06T16:08:40;11.20;99.90
46676;DHT22;32412;51.478;5.694;2023-01-06T16:18:39;11.00;99.90
46676;DHT22;32412;51.478;5.694;2023-01-06T16:21:16;10.90;99.90
46676;DHT22;32412;51.478;5.694;2023-01-06T16:23:53;10.90;99.90
46676;DHT22;32412;51.478;5.694;2023-01-06T16:26:21;10.80;99.90
46676;DHT22;32412;51.478;5.694;2023-01-06T16:28:56;10.80;99.90
46676;DHT22;32412;51.478;5.694;2023-01-06T16:31:38;10.80;99.90
46676;DHT22;32412;51.478;5.694;2023-01-06T16:34:29;10.80;99.90
46676;DHT22;32412;51.478;5.694;2023-01-06T16:36:57;10.80;99.90
46676;DHT22;32412;51.478;5.694;2023-01-06T16:39:23;10.80;99.90
46676;DHT22;32412;51.478;5.694;2023-01-06T16:44:25;10.80;99.90
46676;DHT22;32412;51.478;5.694;2023-01-06T16:46:51;10.80;99.90
46676;DHT22;32412;51.478;5.694;2023-01-06T16:49:17;10.80;99.90
46676;DHT22;32412;51.478;5.694;2023-01-06T16:51:44;10.70;99.90
46676;DHT22;32412;51.478;5.694;2023-01-06T16:54:11;10.80;99.90
46676;DHT22;32412;51.478;5.694;2023-01-06T16:56:38;10.70;99.90
46676;DHT22;32412;51.478;5.694;2023-01-06T16:59:11;10.80;99.90
46676;DHT22;32412;51.478;5.694;2023-01-06T17:01:37;10.80;99.90
46676;DHT22;32412;51.478;5.694;2023-01-06T17:04:03;10.80;99.90
46676;DHT22;32412;51.478;5.694;2023-01-06T17:06:30;10.70;99.90
46676;DHT22;32412;51.478;5.694;2023-01-06T17:09:00;10.70;99.90
46676;DHT22;32412;51.478;5.694;2023-01-06T17:11:27;10.80;99.90
46676;DHT22;32412;51.478;5.694;2023-01-06T17:14:01;10.80;99.90
46676;DHT22;32412;51.478;5.694;2023-01-06T17:16:34;10.80;99.90
46676;DHT22;32412;51.478;5.694;2023-01-06T17:21:35;10.90;99.90
46676;DHT22;32412;51.478;5.694;2023-01-06T17:24:14;10.90;99.90
46676;DHT22;32412;51.478;5.694;2023-01-06T17:26:50;10.90;99.90
46676;DHT22;32412;51.478;5.694;2023-01-06T17:29:19;10.90;99.90
46676;DHT22;32412;51.478;5.694;2023-01-06T17:31:46;11.00;99.90
46676;DHT22;32412;51.478;5.694;2023-01-06T17:34:18;11.00;99.90
46676;DHT22;32412;51.478;5.694;2023-01-06T17:36:47;11.10;99.90
46676;DHT22;32412;51.478;5.694;2023-01-06T17:39:24;11.10;99.90
46676;DHT22;32412;51.478;5.694;2023-01-06T17:44:55;11.20;99.90
46676;DHT22;32412;51.478;5.694;2023-01-06T17:49:52;11.20;99.90
46676;DHT22;32412;51.478;5.694;2023-01-06T17:52:38;11.10;99.90
46676;DHT22;32412;51.478;5.694;2023-01-06T17:58:15;11.10;99.90
46676;DHT22;32412;51.478;5.694;2023-01-06T18:00:41;11.10;99.90
46676;DHT22;32412;51.478;5.694;2023-01-06T18:03:29;11.10;99.90
46676;DHT22;32412;51.478;5.694;2023-01-06T18:11:36;11.10;99.90
46676;DHT22;32412;51.478;5.694;2023-01-06T18:14:38;11.10;99.90
46676;DHT22;32412;51.478;5.694;2023-01-06T18:17:22;11.10;99.90
46676;DHT22;32412;51.478;5.694;2023-01-06T18:19:49;11.10;99.90
46676;DHT22;32412;51.478;5.694;2023-01-06T18:22:23;11.10;99.90
46676;DHT22;32412;51.478;5.694;2023-01-06T18:24:54;11.10;99.90
46676;DHT22;32412;51.478;5.694;2023-01-06T18:27:25;11.10;99.90